Time;durP1;ratioP1;P1;durP2;ratioP2;P2;SDS_P1;SDS_P2;PMS_P1;PMS_P2;Temp;Humidity;BMP_temperature;BMP_pressure;BME280_temperature;BME280_humidity;BME280_pressure;Samples;Min_cycle;Max_cycle;Signal;HPM_P1;HPM_P2
2021/12/18 00:00:50;;;;;;;27.43;14.60;;;9.10;99.90;;;;;;5092442;28;20468;-85
2021/12/18 00:03:17;;;;;;;22.67;14.07;;;9.00;99.90;;;;;;5103238;28;20456;-86
2021/12/18 00:05:44;;;;;;;24.10;14.40;;;8.90;99.90;;;;;;5098214;28;20477;-88
2021/12/18 00:08:11;;;;;;;19.37;14.20;;;8.90;99.90;;;;;;5083601;28;20476;-87
2021/12/18 00:10:39;;;;;;;29.10;14.00;;;8.90;99.90;;;;;;5102947;28;20450;-87
2021/12/18 00:13:06;;;;;;;20.27;13.40;;;9.00;99.90;;;;;;5094277;28;20471;-87
2021/12/18 00:15:33;;;;;;;24.60;15.50;;;9.00;99.90;;;;;;5082762;28;20519;-87
2021/12/18 00:18:00;;;;;;;22.60;14.63;;;9.00;99.90;;;;;;5082765;28;20963;-85
2021/12/18 00:20:27;;;;;;;25.53;14.90;;;9.00;99.90;;;;;;5099403;28;20446;-86
2021/12/18 00:22:55;;;;;;;31.17;15.73;;;9.00;99.90;;;;;;5093253;28;20515;-88
2021/12/18 00:25:22;;;;;;;24.50;14.63;;;8.90;99.90;;;;;;5090041;28;20524;-87
2021/12/18 00:27:50;;;;;;;26.00;15.07;;;8.90;99.90;;;;;;5090036;28;20490;-86
2021/12/18 00:30:18;;;;;;;23.53;14.00;;;8.90;99.90;;;;;;5104361;28;20457;-85
2021/12/18 00:32:44;;;;;;;25.20;17.17;;;8.80;99.90;;;;;;5104680;28;20475;-88
2021/12/18 00:35:11;;;;;;;25.53;16.77;;;8.80;99.90;;;;;;5104422;28;20456;-87
2021/12/18 00:37:38;;;;;;;28.17;16.80;;;8.90;99.90;;;;;;5105196;28;20451;-87
2021/12/18 00:40:16;;;;;;;22.23;14.57;;;8.90;99.90;;;;;;5106812;28;20540;-88
2021/12/18 00:42:47;;;;;;;25.03;14.47;;;8.80;99.90;;;;;;5101660;28;20462;-87
2021/12/18 00:45:17;;;;;;;26.50;16.63;;;8.90;99.90;;;;;;5093389;28;20447;-85
2021/12/18 00:47:46;;;;;;;26.90;15.53;;;8.80;99.90;;;;;;5099644;28;20931;-86
2021/12/18 00:50:17;;;;;;;26.20;15.20;;;8.90;99.90;;;;;;5090003;28;20539;-86
2021/12/18 00:52:44;;;;;;;30.13;16.77;;;8.90;99.90;;;;;;5087990;28;20472;-87
2021/12/18 00:55:11;;;;;;;21.93;14.07;;;8.70;99.90;;;;;;5100010;28;20450;-86
2021/12/18 00:57:38;;;;;;;23.60;16.10;;;8.70;99.90;;;;;;5099062;28;20566;-87
2021/12/18 01:00:07;;;;;;;25.77;15.07;;;8.70;99.90;;;;;;5098516;28;20466;-85
2021/12/18 01:02:36;;;;;;;21.67;13.57;;;8.60;99.90;;;;;;5098368;28;20987;-86
2021/12/18 01:05:04;;;;;;;19.57;12.47;;;8.60;99.90;;;;;;5088793;28;20451;-89
2021/12/18 01:07:31;;;;;;;22.30;13.97;;;8.70;99.90;;;;;;5098657;28;20482;-87
2021/12/18 01:10:09;;;;;;;19.87;11.47;;;8.60;99.90;;;;;;5102070;28;20993;-88
2021/12/18 01:12:40;;;;;;;16.20;11.43;;;8.70;99.90;;;;;;5102798;28;20504;-85
2021/12/18 01:15:17;;;;;;;15.97;9.90;;;8.70;99.90;;;;;;5099901;28;20487;-88
2021/12/18 01:23:14;;;;;;;15.07;9.97;;;8.60;99.90;;;;;;5105472;28;20437;-85
2021/12/18 01:25:41;;;;;;;19.77;11.07;;;8.60;99.90;;;;;;5106639;28;20530;-86
2021/12/18 01:28:08;;;;;;;16.67;11.00;;;8.60;99.90;;;;;;5106141;28;20482;-87
2021/12/18 01:30:35;;;;;;;16.80;9.40;;;8.60;99.90;;;;;;5101308;28;20468;-87
2021/12/18 01:33:04;;;;;;;19.27;10.10;;;8.70;99.90;;;;;;5101184;28;20474;-86
2021/12/18 01:35:31;;;;;;;20.73;11.50;;;8.70;99.90;;;;;;5093983;28;20936;-85
2021/12/18 01:37:58;;;;;;;18.27;11.63;;;8.80;99.90;;;;;;5095454;28;20446;-85
2021/12/18 01:40:26;;;;;;;17.33;10.43;;;8.80;99.90;;;;;;5084682;28;20454;-85
2021/12/18 01:46:10;;;;;;;16.47;10.03;;;8.70;99.90;;;;;;5098983;28;20434;-85
2021/12/18 01:51:32;;;;;;;16.77;10.90;;;8.90;99.90;;;;;;5096705;28;20462;-85
2021/12/18 01:54:00;;;;;;;17.53;10.40;;;8.90;99.90;;;;;;5098467;28;20447;-85
2021/12/18 01:56:28;;;;;;;16.60;10.73;;;9.00;99.90;;;;;;5093382;28;20447;-84
2021/12/18 01:58:55;;;;;;;21.90;11.50;;;8.90;99.90;;;;;;5078632;28;20491;-86
2021/12/18 02:01:23;;;;;;;16.43;10.70;;;8.90;99.90;;;;;;5079942;28;20762;-86
2021/12/18 02:03:51;;;;;;;16.60;10.90;;;8.90;99.90;;;;;;5100995;28;20450;-85
2021/12/18 02:06:18;;;;;;;17.80;9.77;;;8.80;99.90;;;;;;5099389;28;20453;-86
2021/12/18 02:08:45;;;;;;;14.30;9.37;;;8.80;99.90;;;;;;5099218;28;21012;-85
2021/12/18 02:11:24;;;;;;;17.20;10.50;;;8.90;99.90;;;;;;5099071;28;20498;-86
2021/12/18 02:14:19;;;;;;;14.70;10.17;;;8.90;99.90;;;;;;5099448;28;20446;-87
2021/12/18 02:19:46;;;;;;;16.40;9.20;;;8.90;99.90;;;;;;5077047;28;20489;-85
2021/12/18 02:22:16;;;;;;;14.57;10.40;;;9.00;99.90;;;;;;5077471;28;20897;-85
2021/12/18 02:24:43;;;;;;;13.20;9.10;;;9.00;99.90;;;;;;5096992;28;20905;-86
2021/12/18 02:27:10;;;;;;;15.63;9.47;;;8.90;99.90;;;;;;5096832;28;20504;-87
2021/12/18 02:29:39;;;;;;;15.30;9.10;;;8.70;99.90;;;;;;5095819;28;20477;-86
2021/12/18 02:32:07;;;;;;;16.73;10.20;;;8.80;99.90;;;;;;5094912;28;20516;-86
2021/12/18 02:34:37;;;;;;;15.40;9.70;;;8.70;99.90;;;;;;5096354;28;20450;-85
2021/12/18 02:37:06;;;;;;;15.90;9.90;;;8.80;99.90;;;;;;5096176;28;20461;-85
2021/12/18 02:42:21;;;;;;;16.63;9.43;;;8.80;99.90;;;;;;5059275;28;20462;-84
2021/12/18 02:44:48;;;;;;;14.03;9.23;;;8.90;99.90;;;;;;5104173;28;20451;-86
2021/12/18 02:47:15;;;;;;;14.87;9.97;;;8.90;99.90;;;;;;5115391;28;20437;-91
2021/12/18 02:49:47;;;;;;;12.43;8.67;;;8.90;99.90;;;;;;5108053;28;20480;-86
2021/12/18 02:52:14;;;;;;;17.93;10.07;;;8.90;99.90;;;;;;5093957;28;20477;-85
2021/12/18 02:54:43;;;;;;;14.43;9.37;;;8.80;99.90;;;;;;5089934;28;20495;-85
2021/12/18 02:57:11;;;;;;;17.93;10.17;;;9.00;99.90;;;;;;5094719;28;20795;-85
2021/12/18 02:59:45;;;;;;;16.97;9.47;;;8.90;99.90;;;;;;5093712;28;20452;-85
2021/12/18 03:02:13;;;;;;;12.37;8.60;;;8.90;99.90;;;;;;5097395;28;20523;-85
2021/12/18 03:04:42;;;;;;;15.93;9.30;;;8.90;99.90;;;;;;5109116;28;20503;-86
2021/12/18 03:07:12;;;;;;;17.87;9.87;;;9.00;99.90;;;;;;5104282;28;20449;-86
2021/12/18 03:18:57;;;;;;;19.70;11.30;;;9.00;99.90;;;;;;5096850;28;20489;-85
2021/12/18 03:23:57;;;;;;;15.23;10.50;;;9.00;99.90;;;;;;5097262;28;20426;-88
2021/12/18 03:26:24;;;;;;;13.70;8.53;;;9.00;99.90;;;;;;5077646;28;20434;-86
2021/12/18 03:28:52;;;;;;;14.03;7.80;;;9.00;99.90;;;;;;5077361;28;20491;-87
2021/12/18 03:31:19;;;;;;;12.50;8.50;;;9.00;99.90;;;;;;5079403;28;20483;-88
2021/12/18 03:33:45;;;;;;;16.27;9.97;;;8.90;99.90;;;;;;5083759;28;20459;-87
2021/12/18 03:36:12;;;;;;;15.30;8.33;;;8.90;99.90;;;;;;5102216;28;20457;-88
2021/12/18 03:38:39;;;;;;;14.97;8.80;;;8.90;99.90;;;;;;5101731;28;20446;-86
2021/12/18 03:41:06;;;;;;;14.07;8.57;;;8.90;99.90;;;;;;5100490;28;20448;-86
2021/12/18 03:43:32;;;;;;;16.43;9.23;;;8.90;99.90;;;;;;5110650;28;20429;-89
2021/12/18 03:46:01;;;;;;;12.90;8.43;;;9.00;99.90;;;;;;5110948;28;20451;-86
2021/12/18 03:48:27;;;;;;;14.90;9.00;;;9.00;99.90;;;;;;5103884;28;20537;-87
2021/12/18 03:50:54;;;;;;;19.80;10.07;;;8.90;99.90;;;;;;5103650;28;20456;-87
2021/12/18 03:53:21;;;;;;;13.47;8.27;;;8.90;99.90;;;;;;5103518;28;20451;-88
2021/12/18 03:55:48;;;;;;;16.93;9.27;;;9.00;99.90;;;;;;5105516;28;20457;-87
2021/12/18 03:58:14;;;;;;;15.33;8.50;;;8.90;99.90;;;;;;5105284;28;20449;-87
2021/12/18 04:00:41;;;;;;;20.10;10.03;;;8.90;99.90;;;;;;5097847;28;20452;-89
2021/12/18 04:03:09;;;;;;;15.70;8.83;;;8.90;99.90;;;;;;5102142;28;20474;-87
2021/12/18 04:05:37;;;;;;;17.33;9.40;;;8.90;99.90;;;;;;5094690;28;20443;-87
2021/12/18 04:08:09;;;;;;;15.47;9.00;;;8.90;99.90;;;;;;5102249;28;20950;-86
2021/12/18 04:10:38;;;;;;;20.97;10.23;;;8.90;99.90;;;;;;5095564;28;20471;-87
2021/12/18 04:13:06;;;;;;;22.07;10.83;;;8.90;99.90;;;;;;5093259;28;20470;-86
2021/12/18 04:15:33;;;;;;;19.13;9.20;;;8.90;99.90;;;;;;5097920;28;20525;-86
2021/12/18 04:18:00;;;;;;;16.30;8.47;;;8.90;99.90;;;;;;5101578;28;20454;-88
2021/12/18 04:20:28;;;;;;;19.43;10.37;;;8.90;99.90;;;;;;5101337;28;20450;-87
2021/12/18 04:22:56;;;;;;;16.40;9.20;;;8.90;99.90;;;;;;5101188;28;20468;-85
2021/12/18 04:25:23;;;;;;;17.57;10.40;;;8.90;99.90;;;;;;5104936;28;20824;-88
2021/12/18 04:27:50;;;;;;;20.60;10.40;;;8.90;99.90;;;;;;5104774;28;20452;-86
2021/12/18 04:30:18;;;;;;;20.20;9.47;;;8.80;99.90;;;;;;5099034;28;20483;-86
2021/12/18 04:32:45;;;;;;;20.67;12.30;;;8.80;99.90;;;;;;5105877;28;20525;-86
2021/12/18 04:35:12;;;;;;;17.93;10.87;;;8.90;99.90;;;;;;5106643;28;20514;-85
2021/12/18 04:37:40;;;;;;;19.53;10.67;;;8.90;99.90;;;;;;5106234;28;20450;-86
2021/12/18 04:40:08;;;;;;;18.10;10.80;;;8.90;99.90;;;;;;5088825;28;20462;-86
2021/12/18 04:42:35;;;;;;;20.80;10.60;;;8.90;99.90;;;;;;5105164;22;20493;-82
2021/12/18 04:45:02;;;;;;;16.87;9.50;;;8.90;99.90;;;;;;5049098;28;20460;-81
2021/12/18 04:47:28;;;;;;;14.90;8.63;;;8.90;99.90;;;;;;5051034;28;20445;-81
2021/12/18 04:49:56;;;;;;;17.53;9.80;;;8.90;99.90;;;;;;5044203;28;20861;-80
2021/12/18 04:52:23;;;;;;;17.63;10.30;;;8.90;99.90;;;;;;5057457;28;20477;-80
2021/12/18 04:54:51;;;;;;;20.77;10.43;;;8.90;99.90;;;;;;5041499;28;20455;-81
2021/12/18 04:57:18;;;;;;;16.03;8.83;;;8.80;99.90;;;;;;5038400;28;20457;-81
2021/12/18 04:59:45;;;;;;;17.13;9.17;;;8.90;99.90;;;;;;5027542;28;21035;-80
2021/12/18 05:02:15;;;;;;;14.70;8.10;;;9.00;99.90;;;;;;5026347;28;20826;-80
2021/12/18 05:04:42;;;;;;;18.17;9.53;;;9.00;99.90;;;;;;5018098;28;20453;-81
2021/12/18 05:07:10;;;;;;;16.20;9.27;;;8.80;99.90;;;;;;5028943;28;20450;-80
2021/12/18 05:09:37;;;;;;;16.53;8.60;;;8.90;99.90;;;;;;5026399;28;20574;-78
2021/12/18 05:12:07;;;;;;;24.20;11.20;;;8.90;99.90;;;;;;5035875;28;20496;-80
2021/12/18 05:14:33;;;;;;;18.83;9.83;;;8.80;99.90;;;;;;5028336;28;20978;-78
2021/12/18 05:17:00;;;;;;;22.53;10.90;;;8.90;99.90;;;;;;5032644;28;20463;-79
2021/12/18 05:19:27;;;;;;;18.23;8.57;;;8.90;99.90;;;;;;5032041;28;20459;-78
2021/12/18 05:21:54;;;;;;;18.13;9.13;;;8.90;99.90;;;;;;5032759;28;20559;-81
2021/12/18 05:24:21;;;;;;;20.90;9.93;;;8.90;99.90;;;;;;5032248;28;20459;-83
2021/12/18 05:26:48;;;;;;;20.50;10.20;;;8.90;99.90;;;;;;5040064;28;20461;-82
2021/12/18 05:29:16;;;;;;;18.60;9.73;;;8.90;99.90;;;;;;5025007;28;20454;-82
2021/12/18 05:31:43;;;;;;;22.50;9.60;;;9.00;99.90;;;;;;5021536;28;20476;-83
2021/12/18 05:34:10;;;;;;;22.60;10.40;;;9.00;99.90;;;;;;5034227;28;20450;-83
2021/12/18 05:37:01;;;;;;;20.43;9.50;;;9.00;99.90;;;;;;5031350;28;20454;-80
2021/12/18 05:39:25;;;;;;;19.83;9.40;;;8.90;99.90;;;;;;5016643;28;20453;-80
2021/12/18 05:41:53;;;;;;;18.50;8.93;;;9.00;99.90;;;;;;5026742;28;20495;-79
2021/12/18 05:44:24;;;;;;;18.33;9.20;;;9.00;99.90;;;;;;5037662;28;20454;-79
2021/12/18 05:46:52;;;;;;;23.47;11.50;;;9.00;99.90;;;;;;5027594;28;20454;-79
2021/12/18 05:49:19;;;;;;;19.73;12.57;;;8.80;99.90;;;;;;5017795;28;20450;-79
2021/12/18 05:51:46;;;;;;;22.30;11.33;;;8.80;99.90;;;;;;5027112;28;20476;-79
2021/12/18 05:54:14;;;;;;;3.40;2.37;;;8.70;99.90;;;;;;5041531;28;20450;-78
2021/12/18 05:56:42;;;;;;;11.10;5.57;;;9.90;99.90;;;;;;5032874;28;20544;-82
2021/12/18 05:59:09;;;;;;;19.80;9.67;;;10.90;99.90;;;;;;5031906;28;20485;-80
2021/12/18 06:01:37;;;;;;;19.57;9.53;;;10.30;99.90;;;;;;5014900;28;20831;-80
2021/12/18 06:04:05;;;;;;;18.73;10.17;;;10.00;99.90;;;;;;5017073;28;20967;-79
2021/12/18 06:06:32;;;;;;;20.97;10.67;;;9.80;99.90;;;;;;5035010;28;20460;-81
2021/12/18 06:08:58;;;;;;;19.10;9.77;;;9.70;99.90;;;;;;5034208;28;20459;-81
2021/12/18 06:11:28;;;;;;;27.00;11.43;;;9.60;99.90;;;;;;5014988;28;20489;-81
2021/12/18 06:13:55;;;;;;;20.40;10.50;;;9.50;99.90;;;;;;5018553;28;20468;-81
2021/12/18 06:16:22;;;;;;;19.00;9.60;;;9.50;99.90;;;;;;5034666;28;20640;-78
2021/12/18 06:18:52;;;;;;;19.37;10.20;;;9.40;99.90;;;;;;5033180;28;20957;-80
2021/12/18 06:21:22;;;;;;;24.83;10.97;;;9.30;99.90;;;;;;5033323;28;20461;-81
2021/12/18 06:23:51;;;;;;;22.67;11.60;;;9.20;99.90;;;;;;5033183;28;20939;-80
2021/12/18 06:26:19;;;;;;;26.03;11.53;;;9.20;99.90;;;;;;5015553;28;20472;-80
2021/12/18 06:28:46;;;;;;;24.70;12.27;;;9.00;99.90;;;;;;5028709;28;20480;-79
2021/12/18 06:31:12;;;;;;;39.57;15.90;;;9.00;99.90;;;;;;5034332;28;20493;-79
2021/12/18 06:33:39;;;;;;;22.20;12.20;;;9.00;99.90;;;;;;5033383;28;20853;-80
2021/12/18 06:36:08;;;;;;;27.37;14.00;;;9.00;99.90;;;;;;5034114;28;20452;-80
2021/12/18 06:38:34;;;;;;;26.93;13.13;;;9.00;99.90;;;;;;5024368;28;20458;-80
2021/12/18 06:41:01;;;;;;;20.70;10.47;;;9.00;99.90;;;;;;5027062;28;20447;-81
2021/12/18 06:43:28;;;;;;;33.57;13.30;;;8.90;99.90;;;;;;5035211;28;20473;-80
2021/12/18 06:45:55;;;;;;;24.43;12.70;;;9.00;99.90;;;;;;5029703;28;20446;-80
2021/12/18 06:48:21;;;;;;;25.37;13.53;;;8.90;99.90;;;;;;5021237;28;20456;-80
2021/12/18 06:50:50;;;;;;;31.77;14.83;;;8.90;99.90;;;;;;5029288;28;20490;-81
2021/12/18 06:53:18;;;;;;;28.40;13.90;;;9.00;99.90;;;;;;5027764;28;20484;-81
2021/12/18 06:55:46;;;;;;;28.50;14.83;;;9.00;99.90;;;;;;5031865;28;20528;-80
2021/12/18 06:58:13;;;;;;;29.63;14.80;;;9.00;99.90;;;;;;5031987;28;20460;-79
2021/12/18 07:00:40;;;;;;;30.60;14.63;;;9.00;99.90;;;;;;5037477;28;20451;-80
2021/12/18 07:03:07;;;;;;;26.43;13.70;;;9.10;99.90;;;;;;5039410;28;21023;-80
2021/12/18 07:05:34;;;;;;;27.30;14.37;;;9.00;99.90;;;;;;5037318;28;20529;-82
2021/12/18 07:08:01;;;;;;;24.90;13.70;;;9.00;99.90;;;;;;5032512;28;20962;-79
2021/12/18 07:10:30;;;;;;;26.53;12.60;;;9.00;99.90;;;;;;5048719;28;20552;-79
2021/12/18 07:12:57;;;;;;;25.60;12.40;;;9.10;99.90;;;;;;5046284;28;20479;-80
2021/12/18 07:15:24;;;;;;;31.93;15.10;;;9.10;99.90;;;;;;5030597;28;20453;-80
2021/12/18 07:17:51;;;;;;;25.80;12.80;;;9.10;99.90;;;;;;5031379;28;20459;-81
2021/12/18 07:20:18;;;;;;;21.77;12.70;;;9.10;99.90;;;;;;5027774;28;20444;-81
2021/12/18 07:22:44;;;;;;;27.00;14.83;;;9.20;99.90;;;;;;5036896;28;20501;-80
2021/12/18 07:25:12;;;;;;;25.77;13.10;;;9.20;99.90;;;;;;5031385;28;20457;-80
2021/12/18 07:27:40;;;;;;;22.80;13.40;;;9.20;99.90;;;;;;5027017;28;20456;-81
2021/12/18 07:30:09;;;;;;;24.00;12.13;;;9.20;99.90;;;;;;5026746;28;20472;-80
2021/12/18 07:32:37;;;;;;;23.50;11.77;;;9.20;99.90;;;;;;5027189;28;20461;-80
2021/12/18 07:35:04;;;;;;;22.57;11.80;;;9.20;99.90;;;;;;5029474;28;20449;-81
2021/12/18 07:37:31;;;;;;;29.13;13.67;;;9.20;99.90;;;;;;5031594;28;20453;-81
2021/12/18 07:39:58;;;;;;;25.90;12.17;;;9.20;99.90;;;;;;5026697;28;20473;-80
2021/12/18 07:42:25;;;;;;;31.33;14.57;;;9.30;99.90;;;;;;5035189;28;20512;-79
2021/12/18 07:44:53;;;;;;;22.43;11.50;;;9.10;99.90;;;;;;5028298;28;20445;-81
2021/12/18 07:47:21;;;;;;;22.60;11.60;;;9.20;99.90;;;;;;5035403;28;20548;-81
2021/12/18 07:49:47;;;;;;;20.53;10.70;;;9.30;99.90;;;;;;5031527;28;20827;-80
2021/12/18 07:52:14;;;;;;;21.97;11.83;;;9.20;99.90;;;;;;5030638;28;20476;-81
2021/12/18 07:54:41;;;;;;;21.90;12.10;;;9.20;99.90;;;;;;5028309;28;20540;-81
2021/12/18 07:57:08;;;;;;;25.00;11.53;;;9.20;99.90;;;;;;5031046;28;20754;-80
2021/12/18 07:59:35;;;;;;;28.30;12.93;;;9.20;99.90;;;;;;5028721;28;20455;-81
2021/12/18 08:02:05;;;;;;;21.07;10.60;;;9.30;99.90;;;;;;5033575;28;20921;-80
2021/12/18 08:04:32;;;;;;;20.43;10.83;;;9.30;99.90;;;;;;5028647;28;20460;-80
2021/12/18 08:06:59;;;;;;;16.57;10.60;;;9.30;99.90;;;;;;5026768;28;20478;-81
2021/12/18 08:09:25;;;;;;;19.83;10.60;;;9.30;99.90;;;;;;5030010;28;20453;-81
2021/12/18 08:11:52;;;;;;;17.03;10.13;;;9.30;99.90;;;;;;5038156;28;20487;-81
2021/12/18 08:14:19;;;;;;;14.30;8.43;;;9.40;99.90;;;;;;5031993;28;20455;-80
2021/12/18 08:16:47;;;;;;;17.77;9.77;;;9.40;99.90;;;;;;5029011;28;20876;-81
2021/12/18 08:19:16;;;;;;;16.40;9.47;;;9.40;99.90;;;;;;5029291;28;20453;-80
2021/12/18 08:21:43;;;;;;;13.33;8.40;;;9.40;99.90;;;;;;5021810;28;20473;-80
2021/12/18 08:24:09;;;;;;;15.90;9.20;;;9.40;99.90;;;;;;5022939;28;21051;-81
2021/12/18 08:26:36;;;;;;;14.27;7.20;;;9.40;99.90;;;;;;5040168;28;20829;-79
2021/12/18 08:29:03;;;;;;;15.60;7.90;;;9.40;99.90;;;;;;5039680;28;20453;-81
2021/12/18 08:31:30;;;;;;;17.70;8.83;;;9.40;99.90;;;;;;5020687;28;20482;-79
2021/12/18 08:33:57;;;;;;;16.37;8.60;;;9.50;99.90;;;;;;5022421;28;20493;-80
2021/12/18 08:36:25;;;;;;;18.37;9.40;;;9.50;99.90;;;;;;5035102;28;20449;-80
2021/12/18 08:38:52;;;;;;;16.30;9.07;;;9.30;99.90;;;;;;5056558;28;20463;-81
2021/12/18 08:41:19;;;;;;;18.33;9.90;;;9.30;99.90;;;;;;5035166;28;20962;-81
2021/12/18 08:43:46;;;;;;;21.07;10.27;;;9.30;99.90;;;;;;5044143;28;21072;-81
2021/12/18 08:46:13;;;;;;;17.30;8.53;;;9.40;99.90;;;;;;5050213;28;20457;-81
2021/12/18 08:48:40;;;;;;;16.27;8.87;;;9.40;99.90;;;;;;5059924;28;20457;-81
2021/12/18 08:51:07;;;;;;;17.17;9.50;;;9.40;99.90;;;;;;5037223;28;20482;-81
2021/12/18 08:53:35;;;;;;;19.10;10.43;;;9.40;99.90;;;;;;5035865;28;20489;-81
2021/12/18 08:56:02;;;;;;;20.33;9.30;;;9.40;99.90;;;;;;5049448;28;20441;-80
2021/12/18 08:58:29;;;;;;;15.03;8.10;;;9.30;99.90;;;;;;5028957;28;20472;-81
2021/12/18 09:00:56;;;;;;;19.77;9.27;;;9.30;99.90;;;;;;5026259;28;20803;-81
2021/12/18 09:03:23;;;;;;;16.80;9.17;;;9.20;99.90;;;;;;5037547;28;20480;-81
2021/12/18 09:05:50;;;;;;;16.40;8.20;;;9.10;99.90;;;;;;5037222;28;20987;-80
2021/12/18 09:08:17;;;;;;;16.10;8.03;;;9.10;99.90;;;;;;5039471;28;20450;-81
2021/12/18 09:10:45;;;;;;;12.97;8.17;;;9.00;99.90;;;;;;5049335;28;20566;-81
2021/12/18 09:13:13;;;;;;;12.53;7.13;;;9.10;99.90;;;;;;5053668;28;20473;-81
2021/12/18 09:15:40;;;;;;;18.70;9.23;;;9.10;99.90;;;;;;5037219;28;20453;-80
2021/12/18 09:18:07;;;;;;;15.37;7.73;;;9.00;99.90;;;;;;5035155;28;20460;-80
2021/12/18 09:20:34;;;;;;;15.83;7.90;;;8.90;99.90;;;;;;5036801;28;20446;-80
2021/12/18 09:23:01;;;;;;;15.93;8.67;;;9.00;99.90;;;;;;5044606;28;20464;-80
2021/12/18 09:25:29;;;;;;;14.33;6.73;;;9.10;99.90;;;;;;5050915;28;21006;-81
2021/12/18 09:27:57;;;;;;;16.43;7.87;;;9.10;99.90;;;;;;5048731;28;20530;-81
2021/12/18 09:30:24;;;;;;;13.33;7.20;;;9.20;99.90;;;;;;5046261;28;20456;-81
2021/12/18 09:32:52;;;;;;;16.10;8.10;;;9.10;99.90;;;;;;5043070;28;20469;-81
2021/12/18 09:35:21;;;;;;;14.33;8.10;;;9.10;99.90;;;;;;5035926;28;20449;-81
2021/12/18 09:37:48;;;;;;;17.60;9.37;;;9.10;99.90;;;;;;5035862;28;20478;-81
2021/12/18 09:40:17;;;;;;;13.77;7.17;;;9.10;99.90;;;;;;5035783;28;20467;-80
2021/12/18 09:42:44;;;;;;;14.97;7.93;;;9.10;99.90;;;;;;5035627;28;20485;-80
2021/12/18 09:45:13;;;;;;;17.03;7.70;;;9.20;99.90;;;;;;5036262;28;20452;-81
2021/12/18 09:47:40;;;;;;;15.90;8.10;;;9.10;99.90;;;;;;5026515;28;20465;-81
2021/12/18 09:50:08;;;;;;;17.53;9.53;;;9.20;99.90;;;;;;5035274;28;20671;-81
2021/12/18 09:52:35;;;;;;;13.47;7.27;;;9.20;99.90;;;;;;5039930;28;20477;-80
2021/12/18 09:55:06;;;;;;;15.60;7.60;;;9.20;99.90;;;;;;5056654;28;20483;-80
2021/12/18 09:57:33;;;;;;;17.57;8.60;;;9.10;99.90;;;;;;5053009;28;20499;-80
2021/12/18 10:00:00;;;;;;;13.80;7.10;;;9.20;99.90;;;;;;5036134;28;20449;-79
2021/12/18 10:02:28;;;;;;;9.87;6.37;;;9.20;99.90;;;;;;5034817;28;20472;-81
2021/12/18 10:04:56;;;;;;;13.53;7.70;;;9.20;99.90;;;;;;5029593;28;20474;-81
2021/12/18 10:07:26;;;;;;;13.80;7.90;;;9.30;99.90;;;;;;5029344;28;20479;-80
2021/12/18 10:09:56;;;;;;;13.17;7.67;;;9.30;99.90;;;;;;5025515;28;20484;-81
2021/12/18 10:12:24;;;;;;;20.53;8.23;;;9.30;99.90;;;;;;5026485;28;21033;-83
2021/12/18 10:14:54;;;;;;;14.93;8.03;;;9.00;99.90;;;;;;5037676;28;20541;-80
2021/12/18 10:17:29;;;;;;;19.40;7.40;;;9.10;99.90;;;;;;5025242;28;20443;-82
2021/12/18 10:20:12;;;;;;;13.33;7.00;;;9.20;99.90;;;;;;5026527;28;20461;-82
2021/12/18 10:22:44;;;;;;;11.00;6.00;;;9.30;99.90;;;;;;5025024;28;20501;-83
2021/12/18 10:25:12;;;;;;;13.83;6.47;;;9.10;99.90;;;;;;5028489;28;20457;-82
2021/12/18 10:27:42;;;;;;;13.40;6.83;;;9.10;99.90;;;;;;5023051;28;20446;-81
2021/12/18 10:30:16;;;;;;;9.77;5.50;;;9.10;99.90;;;;;;5025756;28;20459;-82
2021/12/18 10:32:59;;;;;;;13.10;6.47;;;9.10;99.90;;;;;;5025036;28;20481;-82
2021/12/18 10:35:46;;;;;;;12.30;5.83;;;9.10;99.90;;;;;;5027212;28;20883;-82
2021/12/18 10:38:39;;;;;;;12.50;6.33;;;9.00;99.90;;;;;;5024738;28;20457;-81
2021/12/18 10:41:24;;;;;;;9.60;5.20;;;9.10;99.90;;;;;;5025110;28;20456;-82
2021/12/18 10:44:01;;;;;;;10.80;5.30;;;9.20;99.90;;;;;;5029156;28;20455;-80
2021/12/18 10:46:29;;;;;;;9.27;5.23;;;9.20;99.90;;;;;;5025263;28;20449;-81
2021/12/18 10:49:00;;;;;;;11.33;6.13;;;9.20;99.90;;;;;;5025469;28;20513;-81
2021/12/18 10:51:30;;;;;;;9.87;5.67;;;9.00;99.90;;;;;;5027095;28;20485;-81
2021/12/18 10:54:02;;;;;;;12.70;7.40;;;9.10;99.90;;;;;;5026795;28;20457;-80
2021/12/18 10:56:35;;;;;;;19.57;8.70;;;9.10;99.90;;;;;;5024421;28;20464;-80
2021/12/18 10:59:02;;;;;;;18.53;9.30;;;9.10;99.90;;;;;;5022420;28;20446;-79
2021/12/18 11:01:29;;;;;;;16.80;8.57;;;9.00;99.90;;;;;;5030943;28;20450;-80
2021/12/18 11:03:57;;;;;;;15.83;8.93;;;9.10;99.90;;;;;;5031149;28;20458;-80
2021/12/18 11:06:28;;;;;;;15.67;8.43;;;9.00;99.90;;;;;;5026411;28;20463;-79
2021/12/18 11:09:08;;;;;;;16.57;7.50;;;8.90;99.90;;;;;;5023262;28;20455;-80
2021/12/18 11:14:36;;;;;;;15.10;8.00;;;8.90;99.90;;;;;;5023574;28;20424;-80
2021/12/18 11:17:05;;;;;;;18.40;8.73;;;8.80;99.90;;;;;;5024324;28;20460;-80
2021/12/18 11:19:35;;;;;;;17.93;9.17;;;8.90;99.90;;;;;;5029380;28;20449;-80
2021/12/18 11:22:05;;;;;;;17.97;9.17;;;8.90;99.90;;;;;;5026135;28;20464;-79
2021/12/18 11:24:36;;;;;;;18.17;9.10;;;9.00;99.90;;;;;;5028148;28;20561;-80
2021/12/18 11:27:06;;;;;;;26.80;11.83;;;9.00;99.90;;;;;;5030087;28;20446;-80
2021/12/18 11:29:40;;;;;;;20.73;10.77;;;9.00;99.90;;;;;;5028267;28;20446;-81
2021/12/18 11:32:09;;;;;;;28.13;12.07;;;9.00;99.90;;;;;;5029895;28;20515;-80
2021/12/18 11:34:39;;;;;;;31.60;14.87;;;9.20;99.90;;;;;;5028640;28;20509;-79
2021/12/18 11:37:08;;;;;;;23.57;11.53;;;9.30;99.90;;;;;;5031190;28;20549;-79
2021/12/18 11:39:36;;;;;;;28.47;12.30;;;9.30;99.90;;;;;;5029919;28;20530;-79
2021/12/18 11:42:03;;;;;;;32.83;15.77;;;9.40;99.90;;;;;;5027205;28;20481;-80
2021/12/18 11:44:34;;;;;;;27.43;14.53;;;9.50;99.90;;;;;;5027218;28;20464;-80
2021/12/18 11:47:25;;;;;;;26.70;15.77;;;9.40;99.90;;;;;;5027401;28;20455;-78
2021/12/18 11:49:56;;;;;;;26.57;13.43;;;9.50;99.90;;;;;;5027044;28;20455;-78
2021/12/18 11:52:23;;;;;;;24.87;11.90;;;9.40;99.90;;;;;;5024858;28;20548;-78
2021/12/18 11:54:53;;;;;;;20.27;11.07;;;9.40;99.90;;;;;;5027744;28;20447;-79
2021/12/18 11:57:42;;;;;;;18.53;11.53;;;9.40;99.90;;;;;;5023385;28;20521;-79
2021/12/18 12:00:25;;;;;;;22.77;9.87;;;9.50;99.90;;;;;;5027855;28;20454;-78
2021/12/18 12:02:54;;;;;;;18.60;10.27;;;9.50;99.90;;;;;;5022265;28;20475;-79
2021/12/18 12:05:34;;;;;;;18.03;8.87;;;9.30;99.90;;;;;;5023450;28;20456;-79
2021/12/18 12:08:19;;;;;;;26.90;11.70;;;9.30;99.90;;;;;;5022573;28;20457;-77
2021/12/18 12:11:15;;;;;;;19.67;8.00;;;9.10;99.90;;;;;;5028301;28;20449;-78
2021/12/18 12:14:01;;;;;;;14.67;8.83;;;9.10;99.90;;;;;;5035443;28;20471;-78
2021/12/18 12:17:00;;;;;;;17.47;8.37;;;9.10;99.90;;;;;;5034810;28;20455;-77
2021/12/18 12:19:44;;;;;;;16.73;8.80;;;9.00;99.90;;;;;;5029936;28;20532;-78
2021/12/18 12:22:40;;;;;;;17.70;7.53;;;9.10;99.90;;;;;;5035382;28;20903;-78
2021/12/18 12:25:09;;;;;;;26.50;10.43;;;9.10;99.90;;;;;;5035869;28;20458;-77
2021/12/18 12:27:38;;;;;;;17.20;8.33;;;9.00;99.90;;;;;;5035857;28;20463;-77
2021/12/18 12:30:08;;;;;;;16.93;8.63;;;9.10;99.90;;;;;;5034366;28;20818;-77
2021/12/18 12:32:36;;;;;;;15.53;8.87;;;9.20;99.90;;;;;;5034350;28;20496;-77
2021/12/18 12:35:06;;;;;;;20.27;10.07;;;9.10;99.90;;;;;;5034459;28;20850;-77
2021/12/18 12:37:37;;;;;;;29.50;11.43;;;9.10;99.90;;;;;;5040717;28;20448;-77
2021/12/18 12:40:07;;;;;;;24.50;11.13;;;9.00;99.90;;;;;;5033735;28;20460;-78
2021/12/18 12:42:35;;;;;;;22.80;11.43;;;8.90;99.90;;;;;;5018185;28;20478;-77
2021/12/18 12:45:08;;;;;;;29.20;11.47;;;9.00;99.90;;;;;;5020160;28;20459;-77
2021/12/18 12:47:36;;;;;;;34.07;16.00;;;9.00;99.90;;;;;;5030422;28;20879;-77
2021/12/18 12:50:27;;;;;;;29.57;12.33;;;9.00;99.90;;;;;;5023241;28;20492;-77
2021/12/18 12:52:57;;;;;;;23.07;10.80;;;9.00;99.90;;;;;;5019752;28;20497;-77
2021/12/18 12:55:25;;;;;;;32.27;12.17;;;9.00;99.90;;;;;;5025378;28;20460;-77
2021/12/18 12:57:55;;;;;;;20.43;11.30;;;8.90;99.90;;;;;;5017636;28;20445;-77
2021/12/18 13:00:42;;;;;;;22.70;12.33;;;8.80;99.90;;;;;;5027922;28;20457;-76
2021/12/18 13:03:16;;;;;;;23.17;11.53;;;8.80;99.90;;;;;;5023563;28;20484;-77
2021/12/18 13:05:49;;;;;;;24.83;10.47;;;8.80;99.90;;;;;;5022899;28;20543;-77
2021/12/18 13:08:18;;;;;;;15.20;7.87;;;8.80;99.90;;;;;;5027757;28;20467;-76
2021/12/18 13:10:47;;;;;;;11.43;6.30;;;8.80;99.90;;;;;;5017854;28;20453;-77
2021/12/18 13:13:17;;;;;;;14.70;6.67;;;8.90;99.90;;;;;;5023758;28;20493;-77
2021/12/18 13:15:55;;;;;;;11.50;7.07;;;8.90;99.90;;;;;;5019128;28;20561;-76
2021/12/18 13:18:24;;;;;;;10.37;6.93;;;8.90;99.90;;;;;;5036939;28;20848;-77
2021/12/18 13:20:55;;;;;;;11.50;6.87;;;8.80;99.90;;;;;;5025789;28;20477;-77
2021/12/18 13:23:37;;;;;;;10.93;5.57;;;8.60;99.90;;;;;;5024386;28;20465;-77
2021/12/18 13:26:05;;;;;;;9.20;6.10;;;8.60;99.90;;;;;;5040321;28;20839;-76